OIAWOIAA

Guest
Details From OIAW - AHWAZ
To OIAA - ABADAN
Flight Number -
Tags generated
Created
Modified
Stats Distance 64 nm / 119 km
Max Altitude 7,300 ft / 2,225 m
Waypoints 3
Social Downloads 1
Likes 0
Share VATSIM

Download

Looking for another format? Having issues loading an existing format? Contact us
Advertisement - Login to hide

Notes

Basic altitude profile: - Ascent Rate: 2500ft/min - Ascent Speed: 250kts - Cruise Altitude: 35000ft - Cruise Speed: 420kts - Descent Rate: 1500ft/min - Descent Speed: 250kts Options: - Use NATs: yes - Use PACOTS: yes - Use low airways: yes - Use high airways: yes

Route

OIAW GABSU OIAA

ID Type Via Altitude Latitude Longitude Leg Dist Tot Dist Heading (true) Name
O OIAW APT - 0 ft / 0 m 31.33743˚ 48.76195˚ - 0 nm - AHWAZ
GABSU FIX - 7,300 ft / 2,225 m 30.88889˚ 48.50472˚ 30 nm 30 nm 206° / 206° -
O OIAA APT - 0 ft / 0 m 30.36518˚ 48.23317˚ 34 nm 64 nm 204° / 204° ABADAN

Altitude Profile

Advertisement - Login to hide

OIAW

Details ICAO OIAW (AWZ)
Name AHWAZ
Region Iran
Timezone Asia/Tehran (UTC+3.5)
Stats Elevation 66 ft / 20 m (AMSL)
Location 31.337430° 48.761949°
Runways 1
Magnetic Variation 3.900° E

METAR

OIAW 120630Z 29006KT 8000 NSC 11/02 Q1020

Decode

TAF

TAF OIAW 120510Z 1206/1312 30004MPS 7000 NSC TEMPO 1206/1215 30009MPS

Decode

Departure Runways

ID Width Length Bearing (true) Bearing (mag) Surface Threshold Offset Overrun Length
12 148 ft / 45 m 11,147 ft / 3,398 m 124.24° 120.34° Asphalt 0 ft / 0 m 978 ft / 298 m
30 148 ft / 45 m 11,147 ft / 3,398 m 304.25° 300.35° Asphalt 0 ft / 0 m 978 ft / 298 m

OIAA

Details ICAO OIAA (ABD)
Name ABADAN
Region Iran
Timezone Asia/Tehran (UTC+3.5)
Stats Elevation 19 ft / 6 m (AMSL)
Location 30.365179° 48.233170°
Runways 2
Magnetic Variation 3.758° E

METAR

OIAA 120600Z 29012KT 7000 NSC 12/01 Q1022

Decode

TAF

TAF TAF OIAA 120510Z 1206/1312 32004MPS 7000 NSC TEMPO 1209/1215 32009MPS

Decode

Destination Runways

ID Width Length Bearing (true) Bearing (mag) Surface Threshold Offset Overrun Length
14L 115 ft / 35 m 7,442 ft / 2,268 m 144.73° 140.97° Asphalt 0 ft / 0 m 197 ft / 60 m
14R 148 ft / 45 m 10,191 ft / 3,106 m 144.72° 140.96° Asphalt 0 ft / 0 m 197 ft / 60 m
32L 148 ft / 45 m 10,191 ft / 3,106 m 324.73° 320.97° Asphalt 0 ft / 0 m 197 ft / 60 m
32R 115 ft / 35 m 7,442 ft / 2,268 m 324.73° 320.97° Asphalt 0 ft / 0 m 197 ft / 60 m